sensor_id;sensor_type;location;lat;lon;timestamp;pressure;altitude;pressure_sealevel;temperature;humidity
78800;BME280;68148;55.328;86.106;2024-03-06T00:00:15;100058.13;;;-4.37;93.55
78800;BME280;68148;55.328;86.106;2024-03-06T00:02:42;100056.22;;;-4.34;93.42
78800;BME280;68148;55.328;86.106;2024-03-06T00:05:22;100060.44;;;-4.33;93.25
78800;BME280;68148;55.328;86.106;2024-03-06T00:07:48;100056.72;;;-4.27;93.14
78800;BME280;68148;55.328;86.106;2024-03-06T00:10:14;100052.50;;;-4.28;92.41
78800;BME280;68148;55.328;86.106;2024-03-06T00:12:40;100056.06;;;-4.31;92.04
78800;BME280;68148;55.328;86.106;2024-03-06T00:15:06;100054.97;;;-4.26;91.89
78800;BME280;68148;55.328;86.106;2024-03-06T00:17:32;100054.16;;;-4.27;91.69
78800;BME280;68148;55.328;86.106;2024-03-06T00:19:58;100047.50;;;-4.31;91.81
78800;BME280;68148;55.328;86.106;2024-03-06T00:22:24;100056.63;;;-4.25;92.15
78800;BME280;68148;55.328;86.106;2024-03-06T00:24:51;100052.25;;;-4.23;91.95
78800;BME280;68148;55.328;86.106;2024-03-06T00:27:17;100065.13;;;-4.23;91.20
78800;BME280;68148;55.328;86.106;2024-03-06T00:29:43;100057.22;;;-4.20;91.49
78800;BME280;68148;55.328;86.106;2024-03-06T00:32:09;100053.66;;;-4.18;91.16
78800;BME280;68148;55.328;86.106;2024-03-06T00:34:35;100063.94;;;-4.18;91.15
78800;BME280;68148;55.328;86.106;2024-03-06T00:37:00;100057.31;;;-4.22;90.72
78800;BME280;68148;55.328;86.106;2024-03-06T00:39:27;100059.88;;;-4.22;91.33
78800;BME280;68148;55.328;86.106;2024-03-06T00:41:54;100058.03;;;-4.20;91.09
78800;BME280;68148;55.328;86.106;2024-03-06T00:44:20;100052.66;;;-4.15;91.02
78800;BME280;68148;55.328;86.106;2024-03-06T00:46:46;100052.06;;;-4.20;90.87
78800;BME280;68148;55.328;86.106;2024-03-06T00:49:15;100057.22;;;-4.20;90.62
78800;BME280;68148;55.328;86.106;2024-03-06T00:51:41;100059.78;;;-4.20;91.02
78800;BME280;68148;55.328;86.106;2024-03-06T00:54:06;100055.28;;;-4.17;91.26
78800;BME280;68148;55.328;86.106;2024-03-06T00:56:32;100049.47;;;-4.20;91.26
78800;BME280;68148;55.328;86.106;2024-03-06T00:59:02;100053.91;;;-4.22;90.80
78800;BME280;68148;55.328;86.106;2024-03-06T01:01:28;100053.13;;;-4.24;90.99
78800;BME280;68148;55.328;86.106;2024-03-06T01:03:54;100049.06;;;-4.29;91.48
78800;BME280;68148;55.328;86.106;2024-03-06T01:06:20;100055.91;;;-4.28;91.39
78800;BME280;68148;55.328;86.106;2024-03-06T01:08:46;100044.59;;;-4.25;91.51
78800;BME280;68148;55.328;86.106;2024-03-06T01:11:12;100053.31;;;-4.28;90.60
78800;BME280;68148;55.328;86.106;2024-03-06T01:13:38;100053.22;;;-4.26;90.67
78800;BME280;68148;55.328;86.106;2024-03-06T01:16:04;100053.97;;;-4.24;91.03
78800;BME280;68148;55.328;86.106;2024-03-06T01:18:30;100046.00;;;-4.19;91.19
78800;BME280;68148;55.328;86.106;2024-03-06T01:20:56;100044.41;;;-4.22;90.88
78800;BME280;68148;55.328;86.106;2024-03-06T01:23:24;100050.97;;;-4.16;90.42
78800;BME280;68148;55.328;86.106;2024-03-06T01:25:50;100044.06;;;-4.16;90.59
78800;BME280;68148;55.328;86.106;2024-03-06T01:28:16;100039.56;;;-4.12;90.76
78800;BME280;68148;55.328;86.106;2024-03-06T01:30:42;100049.16;;;-4.14;90.05
78800;BME280;68148;55.328;86.106;2024-03-06T01:33:08;100047.72;;;-4.04;90.89
78800;BME280;68148;55.328;86.106;2024-03-06T01:35:34;100043.59;;;-4.07;90.00
78800;BME280;68148;55.328;86.106;2024-03-06T01:38:01;100043.31;;;-4.02;90.01
78800;BME280;68148;55.328;86.106;2024-03-06T01:40:27;100045.91;;;-4.02;90.06
78800;BME280;68148;55.328;86.106;2024-03-06T01:42:53;100048.03;;;-3.94;89.87
78800;BME280;68148;55.328;86.106;2024-03-06T01:45:18;100042.78;;;-3.93;89.10
78800;BME280;68148;55.328;86.106;2024-03-06T01:47:44;100045.19;;;-3.90;89.11
78800;BME280;68148;55.328;86.106;2024-03-06T01:50:10;100050.16;;;-3.87;88.95
78800;BME280;68148;55.328;86.106;2024-03-06T01:52:37;100048.91;;;-3.80;88.95
78800;BME280;68148;55.328;86.106;2024-03-06T01:55:05;100053.91;;;-3.76;88.80
78800;BME280;68148;55.328;86.106;2024-03-06T01:57:33;100057.31;;;-3.76;88.16
78800;BME280;68148;55.328;86.106;2024-03-06T01:59:59;100058.53;;;-3.67;89.03
78800;BME280;68148;55.328;86.106;2024-03-06T02:02:25;100056.94;;;-3.70;88.18
78800;BME280;68148;55.328;86.106;2024-03-06T02:04:53;100059.53;;;-3.70;88.29
78800;BME280;68148;55.328;86.106;2024-03-06T02:07:20;100057.78;;;-3.69;87.51
78800;BME280;68148;55.328;86.106;2024-03-06T02:09:46;100052.84;;;-3.58;88.04
78800;BME280;68148;55.328;86.106;2024-03-06T02:12:12;100050.81;;;-3.53;87.83
78800;BME280;68148;55.328;86.106;2024-03-06T02:14:38;100053.78;;;-3.45;87.71
78800;BME280;68148;55.328;86.106;2024-03-06T02:17:04;100053.97;;;-3.48;86.97
78800;BME280;68148;55.328;86.106;2024-03-06T02:19:57;100060.03;;;-3.49;86.58
78800;BME280;68148;55.328;86.106;2024-03-06T02:22:23;100059.50;;;-3.40;87.15
78800;BME280;68148;55.328;86.106;2024-03-06T02:24:49;100058.41;;;-3.36;86.48
78800;BME280;68148;55.328;86.106;2024-03-06T02:27:15;100063.94;;;-3.28;87.07
78800;BME280;68148;55.328;86.106;2024-03-06T02:29:41;100054.00;;;-3.19;86.96
78800;BME280;68148;55.328;86.106;2024-03-06T02:32:07;100054.66;;;-3.16;86.80
78800;BME280;68148;55.328;86.106;2024-03-06T02:34:32;100063.63;;;-3.07;85.90
78800;BME280;68148;55.328;86.106;2024-03-06T02:37:12;100059.72;;;-3.00;85.58
78800;BME280;68148;55.328;86.106;2024-03-06T02:39:38;100051.97;;;-3.00;84.92
78800;BME280;68148;55.328;86.106;2024-03-06T02:42:14;100062.94;;;-2.96;84.48
78800;BME280;68148;55.328;86.106;2024-03-06T02:44:39;100058.09;;;-2.87;84.07
78800;BME280;68148;55.328;86.106;2024-03-06T02:47:05;100062.47;;;-2.74;83.66
78800;BME280;68148;55.328;86.106;2024-03-06T02:49:31;100065.06;;;-2.60;83.70
78800;BME280;68148;55.328;86.106;2024-03-06T02:51:57;100062.03;;;-2.53;82.84
78800;BME280;68148;55.328;86.106;2024-03-06T02:54:23;100064.31;;;-2.48;83.31
78800;BME280;68148;55.328;86.106;2024-03-06T02:56:51;100055.66;;;-2.61;82.50
78800;BME280;68148;55.328;86.106;2024-03-06T02:59:19;100066.91;;;-2.62;82.65
78800;BME280;68148;55.328;86.106;2024-03-06T03:01:47;100058.72;;;-2.69;82.12
78800;BME280;68148;55.328;86.106;2024-03-06T03:04:13;100062.94;;;-2.68;82.14
78800;BME280;68148;55.328;86.106;2024-03-06T03:06:39;100065.53;;;-2.68;82.37
78800;BME280;68148;55.328;86.106;2024-03-06T03:09:04;100062.84;;;-2.52;83.13
78800;BME280;68148;55.328;86.106;2024-03-06T03:11:30;100066.44;;;-2.55;81.27
78800;BME280;68148;55.328;86.106;2024-03-06T03:13:56;100066.06;;;-2.63;80.66
78800;BME280;68148;55.328;86.106;2024-03-06T03:16:22;100074.09;;;-2.53;81.04
78800;BME280;68148;55.328;86.106;2024-03-06T03:18:48;100070.94;;;-2.44;81.23
78800;BME280;68148;55.328;86.106;2024-03-06T03:21:15;100073.91;;;-2.50;80.43
78800;BME280;68148;55.328;86.106;2024-03-06T03:23:41;100072.06;;;-2.48;80.50
78800;BME280;68148;55.328;86.106;2024-03-06T03:26:08;100068.91;;;-2.39;81.88
78800;BME280;68148;55.328;86.106;2024-03-06T03:28:34;100067.03;;;-2.37;81.62
78800;BME280;68148;55.328;86.106;2024-03-06T03:31:01;100065.56;;;-2.41;79.95
78800;BME280;68148;55.328;86.106;2024-03-06T03:33:27;100082.19;;;-2.45;80.75
78800;BME280;68148;55.328;86.106;2024-03-06T03:35:53;100076.44;;;-2.36;80.98
78800;BME280;68148;55.328;86.106;2024-03-06T03:38:18;100078.78;;;-2.45;79.94
78800;BME280;68148;55.328;86.106;2024-03-06T03:41:10;100080.06;;;-2.38;80.25
78800;BME280;68148;55.328;86.106;2024-03-06T03:43:38;100073.63;;;-2.45;80.22
78800;BME280;68148;55.328;86.106;2024-03-06T03:46:04;100083.13;;;-2.46;79.80
78800;BME280;68148;55.328;86.106;2024-03-06T03:48:34;100079.06;;;-2.50;79.54
78800;BME280;68148;55.328;86.106;2024-03-06T03:50:59;100081.84;;;-2.39;80.27
78800;BME280;68148;55.328;86.106;2024-03-06T03:53:25;100076.44;;;-2.36;80.28
78800;BME280;68148;55.328;86.106;2024-03-06T03:55:51;100085.50;;;-2.29;79.15
78800;BME280;68148;55.328;86.106;2024-03-06T03:58:17;100081.50;;;-2.20;78.95
78800;BME280;68148;55.328;86.106;2024-03-06T04:00:42;100083.22;;;-2.06;78.80
78800;BME280;68148;55.328;86.106;2024-03-06T04:03:08;100074.59;;;-1.92;77.72
78800;BME280;68148;55.328;86.106;2024-03-06T04:05:34;100078.41;;;-1.85;77.83
78800;BME280;68148;55.328;86.106;2024-03-06T04:08:05;100085.63;;;-1.63;78.23
78800;BME280;68148;55.328;86.106;2024-03-06T04:10:32;100080.59;;;-1.52;77.99
78800;BME280;68148;55.328;86.106;2024-03-06T04:12:58;100077.00;;;-1.37;76.09
78800;BME280;68148;55.328;86.106;2024-03-06T04:15:24;100081.88;;;-1.32;75.13
78800;BME280;68148;55.328;86.106;2024-03-06T04:17:50;100073.16;;;-1.31;76.16
78800;BME280;68148;55.328;86.106;2024-03-06T04:20:16;100076.16;;;-1.24;75.94
78800;BME280;68148;55.328;86.106;2024-03-06T04:22:44;100085.47;;;-1.35;76.13
78800;BME280;68148;55.328;86.106;2024-03-06T04:25:30;100084.31;;;-1.43;75.54
78800;BME280;68148;55.328;86.106;2024-03-06T04:27:56;100082.88;;;-1.35;74.94
78800;BME280;68148;55.328;86.106;2024-03-06T04:30:22;100085.69;;;-1.12;74.92
78800;BME280;68148;55.328;86.106;2024-03-06T04:32:47;100086.13;;;-0.93;75.09
78800;BME280;68148;55.328;86.106;2024-03-06T04:35:16;100092.31;;;-0.83;74.86
78800;BME280;68148;55.328;86.106;2024-03-06T04:37:42;100088.06;;;-0.71;73.13
78800;BME280;68148;55.328;86.106;2024-03-06T04:40:08;100085.56;;;-0.47;72.20
78800;BME280;68148;55.328;86.106;2024-03-06T04:42:34;100086.41;;;-0.22;73.74
78800;BME280;68148;55.328;86.106;2024-03-06T04:45:00;100082.69;;;0.06;74.95
78800;BME280;68148;55.328;86.106;2024-03-06T04:47:29;100089.56;;;-0.06;71.17
78800;BME280;68148;55.328;86.106;2024-03-06T04:49:55;100076.25;;;-0.02;71.03
78800;BME280;68148;55.328;86.106;2024-03-06T04:52:22;100069.16;;;-0.11;71.74
78800;BME280;68148;55.328;86.106;2024-03-06T04:54:49;100084.63;;;-0.22;71.65
78800;BME280;68148;55.328;86.106;2024-03-06T04:57:15;100086.59;;;-0.13;72.84
78800;BME280;68148;55.328;86.106;2024-03-06T04:59:51;100081.06;;;-0.08;71.95
78800;BME280;68148;55.328;86.106;2024-03-06T05:02:16;100080.03;;;0.18;70.63
78800;BME280;68148;55.328;86.106;2024-03-06T05:04:42;100088.41;;;0.22;69.92
78800;BME280;68148;55.328;86.106;2024-03-06T05:07:09;100085.00;;;-0.03;70.67
78800;BME280;68148;55.328;86.106;2024-03-06T05:09:42;100091.94;;;0.21;72.51
78800;BME280;68148;55.328;86.106;2024-03-06T05:12:08;100090.84;;;0.12;70.66
78800;BME280;68148;55.328;86.106;2024-03-06T05:14:34;100101.56;;;0.32;70.39
78800;BME280;68148;55.328;86.106;2024-03-06T05:17:00;100094.19;;;0.49;69.61
78800;BME280;68148;55.328;86.106;2024-03-06T05:19:26;100087.13;;;0.63;68.77
78800;BME280;68148;55.328;86.106;2024-03-06T05:21:52;100089.38;;;0.67;70.05
78800;BME280;68148;55.328;86.106;2024-03-06T05:24:17;100095.38;;;0.57;68.77
78800;BME280;68148;55.328;86.106;2024-03-06T05:26:43;100100.41;;;0.47;68.14
78800;BME280;68148;55.328;86.106;2024-03-06T05:29:09;100106.34;;;0.49;68.95
78800;BME280;68148;55.328;86.106;2024-03-06T05:31:35;100099.22;;;0.40;69.42
78800;BME280;68148;55.328;86.106;2024-03-06T05:34:01;100107.78;;;0.29;70.71
78800;BME280;68148;55.328;86.106;2024-03-06T05:36:34;100103.69;;;0.38;69.95
78800;BME280;68148;55.328;86.106;2024-03-06T05:39:00;100095.53;;;0.31;69.43
78800;BME280;68148;55.328;86.106;2024-03-06T05:41:28;100104.97;;;0.32;70.14
78800;BME280;68148;55.328;86.106;2024-03-06T05:43:54;100099.28;;;0.27;69.62
78800;BME280;68148;55.328;86.106;2024-03-06T05:46:19;100105.13;;;0.42;70.65
78800;BME280;68148;55.328;86.106;2024-03-06T05:48:45;100101.16;;;0.49;72.75
78800;BME280;68148;55.328;86.106;2024-03-06T05:51:11;100103.66;;;0.27;70.42
78800;BME280;68148;55.328;86.106;2024-03-06T05:53:37;100105.09;;;0.31;69.67
78800;BME280;68148;55.328;86.106;2024-03-06T05:56:05;100096.50;;;0.41;72.60
78800;BME280;68148;55.328;86.106;2024-03-06T05:58:32;100105.03;;;0.43;70.88
78800;BME280;68148;55.328;86.106;2024-03-06T06:00:58;100105.19;;;0.29;70.41
78800;BME280;68148;55.328;86.106;2024-03-06T06:03:23;100102.38;;;0.32;70.20
78800;BME280;68148;55.328;86.106;2024-03-06T06:05:49;100102.97;;;0.36;72.12
78800;BME280;68148;55.328;86.106;2024-03-06T06:08:15;100096.63;;;0.40;71.63
78800;BME280;68148;55.328;86.106;2024-03-06T06:10:56;100110.72;;;0.24;69.54
78800;BME280;68148;55.328;86.106;2024-03-06T06:13:29;100106.13;;;0.28;69.70
78800;BME280;68148;55.328;86.106;2024-03-06T06:15:57;100111.25;;;0.41;69.56
78800;BME280;68148;55.328;86.106;2024-03-06T06:18:23;100112.84;;;0.55;72.80
78800;BME280;68148;55.328;86.106;2024-03-06T06:20:49;100111.41;;;0.50;70.35
78800;BME280;68148;55.328;86.106;2024-03-06T06:23:18;100107.56;;;0.56;72.02
78800;BME280;68148;55.328;86.106;2024-03-06T06:26:02;100113.44;;;0.58;72.71
78800;BME280;68148;55.328;86.106;2024-03-06T06:28:54;100111.44;;;0.62;70.81
78800;BME280;68148;55.328;86.106;2024-03-06T06:31:20;100124.56;;;0.71;71.77
78800;BME280;68148;55.328;86.106;2024-03-06T06:33:45;100125.25;;;0.62;71.72
78800;BME280;68148;55.328;86.106;2024-03-06T06:36:15;100115.84;;;0.72;71.29
78800;BME280;68148;55.328;86.106;2024-03-06T06:38:49;100114.91;;;0.73;71.84
78800;BME280;68148;55.328;86.106;2024-03-06T06:41:28;100118.28;;;0.63;71.79
78800;BME280;68148;55.328;86.106;2024-03-06T06:43:54;100114.44;;;0.80;74.48
78800;BME280;68148;55.328;86.106;2024-03-06T06:46:19;100117.56;;;0.96;72.47
78800;BME280;68148;55.328;86.106;2024-03-06T06:48:45;100122.13;;;0.81;69.67
78800;BME280;68148;55.328;86.106;2024-03-06T06:51:11;100115.19;;;0.82;69.52
78800;BME280;68148;55.328;86.106;2024-03-06T06:53:41;100124.63;;;0.94;72.42
78800;BME280;68148;55.328;86.106;2024-03-06T06:56:07;100114.00;;;0.97;71.83
78800;BME280;68148;55.328;86.106;2024-03-06T06:58:36;100120.03;;;0.97;70.99
78800;BME280;68148;55.328;86.106;2024-03-06T07:01:02;100118.84;;;0.90;70.10
78800;BME280;68148;55.328;86.106;2024-03-06T07:03:28;100113.91;;;1.10;73.96
78800;BME280;68148;55.328;86.106;2024-03-06T07:05:54;100111.34;;;1.21;72.03
78800;BME280;68148;55.328;86.106;2024-03-06T07:08:20;100111.69;;;1.28;71.43
78800;BME280;68148;55.328;86.106;2024-03-06T07:10:46;100112.66;;;1.38;71.17
78800;BME280;68148;55.328;86.106;2024-03-06T07:13:12;100101.63;;;1.23;70.01
78800;BME280;68148;55.328;86.106;2024-03-06T07:15:38;100108.88;;;1.42;73.58
78800;BME280;68148;55.328;86.106;2024-03-06T07:18:05;100106.00;;;1.56;72.34
78800;BME280;68148;55.328;86.106;2024-03-06T07:20:32;100104.69;;;1.28;70.07
78800;BME280;68148;55.328;86.106;2024-03-06T07:23:01;100105.56;;;1.29;72.00
78800;BME280;68148;55.328;86.106;2024-03-06T07:25:26;100105.03;;;1.01;71.16
78800;BME280;68148;55.328;86.106;2024-03-06T07:27:52;100112.72;;;0.91;71.04
78800;BME280;68148;55.328;86.106;2024-03-06T07:30:18;100108.13;;;1.06;72.35
78800;BME280;68148;55.328;86.106;2024-03-06T07:32:44;100109.31;;;1.13;73.12
78800;BME280;68148;55.328;86.106;2024-03-06T07:35:10;100107.44;;;1.27;71.76
78800;BME280;68148;55.328;86.106;2024-03-06T07:37:39;100095.28;;;1.16;71.29
78800;BME280;68148;55.328;86.106;2024-03-06T07:40:07;100094.06;;;1.31;73.04
78800;BME280;68148;55.328;86.106;2024-03-06T07:42:36;100095.38;;;1.37;71.76
78800;BME280;68148;55.328;86.106;2024-03-06T07:45:05;100080.47;;;1.28;72.83
78800;BME280;68148;55.328;86.106;2024-03-06T07:47:32;100088.28;;;1.16;69.94
78800;BME280;68148;55.328;86.106;2024-03-06T07:49:58;100088.88;;;1.20;71.01
78800;BME280;68148;55.328;86.106;2024-03-06T07:52:28;100086.75;;;1.25;71.11
78800;BME280;68148;55.328;86.106;2024-03-06T07:54:54;100088.03;;;1.19;70.95
78800;BME280;68148;55.328;86.106;2024-03-06T07:57:20;100090.53;;;1.32;70.60
78800;BME280;68148;55.328;86.106;2024-03-06T07:59:46;100089.59;;;1.22;68.29
78800;BME280;68148;55.328;86.106;2024-03-06T08:02:12;100098.81;;;1.37;71.28
78800;BME280;68148;55.328;86.106;2024-03-06T08:04:38;100089.00;;;1.30;69.70
78800;BME280;68148;55.328;86.106;2024-03-06T08:07:04;100092.44;;;1.30;72.64
78800;BME280;68148;55.328;86.106;2024-03-06T08:09:30;100091.72;;;1.28;71.29
78800;BME280;68148;55.328;86.106;2024-03-06T08:11:55;100094.19;;;1.41;72.40
78800;BME280;68148;55.328;86.106;2024-03-06T08:14:21;100091.13;;;1.13;69.55
78800;BME280;68148;55.328;86.106;2024-03-06T08:16:47;100093.59;;;1.04;69.70
78800;BME280;68148;55.328;86.106;2024-03-06T08:19:13;100099.03;;;1.00;69.27
78800;BME280;68148;55.328;86.106;2024-03-06T08:21:40;100090.19;;;1.25;69.91
78800;BME280;68148;55.328;86.106;2024-03-06T08:24:06;100087.09;;;1.09;68.32
78800;BME280;68148;55.328;86.106;2024-03-06T08:26:32;100092.09;;;1.46;72.03
78800;BME280;68148;55.328;86.106;2024-03-06T08:28:59;100095.59;;;1.56;70.52
78800;BME280;68148;55.328;86.106;2024-03-06T08:31:25;100096.19;;;1.60;69.73
78800;BME280;68148;55.328;86.106;2024-03-06T08:33:51;100093.38;;;1.40;68.78
78800;BME280;68148;55.328;86.106;2024-03-06T08:36:17;100092.06;;;1.57;71.14
78800;BME280;68148;55.328;86.106;2024-03-06T08:38:43;100096.69;;;1.42;71.00
78800;BME280;68148;55.328;86.106;2024-03-06T08:41:09;100091.13;;;1.24;69.30
78800;BME280;68148;55.328;86.106;2024-03-06T08:43:36;100092.06;;;1.35;70.97
78800;BME280;68148;55.328;86.106;2024-03-06T08:46:02;100091.34;;;1.44;72.37
78800;BME280;68148;55.328;86.106;2024-03-06T08:48:28;100096.66;;;1.20;69.40
78800;BME280;68148;55.328;86.106;2024-03-06T08:50:53;100104.00;;;1.26;73.44
78800;BME280;68148;55.328;86.106;2024-03-06T08:53:19;100095.16;;;1.29;70.96
78800;BME280;68148;55.328;86.106;2024-03-06T08:55:45;100099.63;;;1.15;68.94
78800;BME280;68148;55.328;86.106;2024-03-06T08:58:11;100098.22;;;1.34;74.21
78800;BME280;68148;55.328;86.106;2024-03-06T09:00:37;100095.38;;;1.14;69.87
78800;BME280;68148;55.328;86.106;2024-03-06T09:03:10;100101.38;;;1.15;70.41
78800;BME280;68148;55.328;86.106;2024-03-06T09:05:35;100102.22;;;1.27;74.13
78800;BME280;68148;55.328;86.106;2024-03-06T09:08:01;100095.84;;;1.08;72.55
78800;BME280;68148;55.328;86.106;2024-03-06T09:10:27;100095.56;;;0.89;70.35
78800;BME280;68148;55.328;86.106;2024-03-06T09:12:57;100094.34;;;0.70;70.65
78800;BME280;68148;55.328;86.106;2024-03-06T09:15:22;100096.75;;;0.85;74.44
78800;BME280;68148;55.328;86.106;2024-03-06T09:17:49;100097.56;;;0.74;70.74
78800;BME280;68148;55.328;86.106;2024-03-06T09:20:15;100097.56;;;0.85;73.86
78800;BME280;68148;55.328;86.106;2024-03-06T09:22:41;100091.75;;;0.70;70.68
78800;BME280;68148;55.328;86.106;2024-03-06T09:25:08;100097.19;;;0.67;74.37
78800;BME280;68148;55.328;86.106;2024-03-06T09:27:34;100091.75;;;0.70;73.18
78800;BME280;68148;55.328;86.106;2024-03-06T09:30:00;100093.47;;;0.47;74.73
78800;BME280;68148;55.328;86.106;2024-03-06T09:32:26;100097.06;;;0.34;72.15
78800;BME280;68148;55.328;86.106;2024-03-06T09:34:52;100095.69;;;0.41;73.95
78800;BME280;68148;55.328;86.106;2024-03-06T09:37:19;100098.53;;;0.49;76.31
78800;BME280;68148;55.328;86.106;2024-03-06T09:39:44;100089.47;;;0.55;75.73
78800;BME280;68148;55.328;86.106;2024-03-06T09:42:10;100104.25;;;0.65;76.13
78800;BME280;68148;55.328;86.106;2024-03-06T09:44:37;100088.50;;;0.56;73.28
78800;BME280;68148;55.328;86.106;2024-03-06T09:47:03;100092.41;;;0.50;73.30
78800;BME280;68148;55.328;86.106;2024-03-06T09:49:34;100092.31;;;0.52;75.45
78800;BME280;68148;55.328;86.106;2024-03-06T09:52:02;100085.78;;;0.46;74.30
78800;BME280;68148;55.328;86.106;2024-03-06T09:54:29;100098.47;;;0.27;72.70
78800;BME280;68148;55.328;86.106;2024-03-06T09:56:55;100100.44;;;0.23;75.62
78800;BME280;68148;55.328;86.106;2024-03-06T09:59:22;100099.44;;;0.13;73.07
78800;BME280;68148;55.328;86.106;2024-03-06T10:01:55;100098.03;;;0.09;73.54
78800;BME280;68148;55.328;86.106;2024-03-06T10:04:22;100097.31;;;0.07;75.01
78800;BME280;68148;55.328;86.106;2024-03-06T10:06:54;100100.16;;;-0.09;72.62
78800;BME280;68148;55.328;86.106;2024-03-06T10:09:22;100093.31;;;-0.10;73.50
78800;BME280;68148;55.328;86.106;2024-03-06T10:11:48;100102.25;;;-0.14;75.31
78800;BME280;68148;55.328;86.106;2024-03-06T10:14:14;100105.66;;;-0.14;75.71
78800;BME280;68148;55.328;86.106;2024-03-06T10:16:57;100105.50;;;-0.23;73.59
78800;BME280;68148;55.328;86.106;2024-03-06T10:19:25;100107.97;;;-0.22;76.67
78800;BME280;68148;55.328;86.106;2024-03-06T10:21:51;100106.53;;;-0.26;75.16
78800;BME280;68148;55.328;86.106;2024-03-06T10:24:27;100109.13;;;-0.26;73.58
78800;BME280;68148;55.328;86.106;2024-03-06T10:26:58;100110.09;;;-0.40;74.54
78800;BME280;68148;55.328;86.106;2024-03-06T10:29:28;100107.81;;;-0.32;76.66
78800;BME280;68148;55.328;86.106;2024-03-06T10:31:54;100110.00;;;-0.38;75.36
78800;BME280;68148;55.328;86.106;2024-03-06T10:34:21;100106.97;;;-0.32;76.90
78800;BME280;68148;55.328;86.106;2024-03-06T10:36:54;100109.38;;;-0.42;75.60
78800;BME280;68148;55.328;86.106;2024-03-06T10:39:20;100113.44;;;-0.51;75.04
78800;BME280;68148;55.328;86.106;2024-03-06T10:41:52;100112.31;;;-0.59;74.74
78800;BME280;68148;55.328;86.106;2024-03-06T10:44:24;100116.94;;;-0.52;76.56
78800;BME280;68148;55.328;86.106;2024-03-06T10:47:01;100109.63;;;-0.58;75.29
78800;BME280;68148;55.328;86.106;2024-03-06T10:49:28;100113.66;;;-0.66;74.99
78800;BME280;68148;55.328;86.106;2024-03-06T10:52:01;100111.06;;;-0.66;74.95
78800;BME280;68148;55.328;86.106;2024-03-06T10:54:31;100111.59;;;-0.61;75.00
78800;BME280;68148;55.328;86.106;2024-03-06T10:56:58;100112.53;;;-0.62;75.23
78800;BME280;68148;55.328;86.106;2024-03-06T10:59:28;100113.16;;;-0.59;77.66
78800;BME280;68148;55.328;86.106;2024-03-06T11:01:59;100108.28;;;-0.63;78.32
78800;BME280;68148;55.328;86.106;2024-03-06T11:04:31;100115.53;;;-0.56;78.55
78800;BME280;68148;55.328;86.106;2024-03-06T11:06:57;100117.41;;;-0.70;76.42
78800;BME280;68148;55.328;86.106;2024-03-06T11:09:23;100116.91;;;-0.76;75.56
78800;BME280;68148;55.328;86.106;2024-03-06T11:11:53;100113.56;;;-0.78;78.14
78800;BME280;68148;55.328;86.106;2024-03-06T11:14:21;100118.88;;;-0.79;77.81
78800;BME280;68148;55.328;86.106;2024-03-06T11:17:04;100118.66;;;-0.89;77.91
78800;BME280;68148;55.328;86.106;2024-03-06T11:19:32;100122.19;;;-0.90;76.19
78800;BME280;68148;55.328;86.106;2024-03-06T11:21:58;100119.81;;;-0.93;78.12
78800;BME280;68148;55.328;86.106;2024-03-06T11:24:32;100122.78;;;-0.99;77.57
78800;BME280;68148;55.328;86.106;2024-03-06T11:27:04;100116.91;;;-1.01;78.22
78800;BME280;68148;55.328;86.106;2024-03-06T11:32:34;100115.00;;;-1.12;77.97
78800;BME280;68148;55.328;86.106;2024-03-06T11:35:01;100125.28;;;-1.10;78.47
78800;BME280;68148;55.328;86.106;2024-03-06T11:37:26;100120.41;;;-1.15;78.88
78800;BME280;68148;55.328;86.106;2024-03-06T11:39:59;100110.38;;;-1.19;78.41
78800;BME280;68148;55.328;86.106;2024-03-06T11:42:35;100119.97;;;-1.21;77.72
78800;BME280;68148;55.328;86.106;2024-03-06T11:45:12;100116.69;;;-1.23;76.83
78800;BME280;68148;55.328;86.106;2024-03-06T11:48:02;100115.00;;;-1.24;77.30
78800;BME280;68148;55.328;86.106;2024-03-06T11:50:29;100109.81;;;-1.24;79.03
78800;BME280;68148;55.328;86.106;2024-03-06T11:53:01;100119.34;;;-1.25;78.88
78800;BME280;68148;55.328;86.106;2024-03-06T11:55:33;100115.94;;;-1.26;77.54
78800;BME280;68148;55.328;86.106;2024-03-06T11:57:59;100116.13;;;-1.29;78.68
78800;BME280;68148;55.328;86.106;2024-03-06T12:00:24;100117.06;;;-1.30;78.08
78800;BME280;68148;55.328;86.106;2024-03-06T12:02:51;100112.09;;;-1.33;78.12
78800;BME280;68148;55.328;86.106;2024-03-06T12:05:18;100122.66;;;-1.36;78.31
78800;BME280;68148;55.328;86.106;2024-03-06T12:07:49;100115.81;;;-1.37;78.81
78800;BME280;68148;55.328;86.106;2024-03-06T12:10:19;100120.16;;;-1.37;78.65
78800;BME280;68148;55.328;86.106;2024-03-06T12:12:44;100117.56;;;-1.37;78.62
78800;BME280;68148;55.328;86.106;2024-03-06T12:15:11;100116.03;;;-1.40;78.69
78800;BME280;68148;55.328;86.106;2024-03-06T12:17:48;100119.44;;;-1.39;79.03
78800;BME280;68148;55.328;86.106;2024-03-06T12:20:15;100115.28;;;-1.42;79.52
78800;BME280;68148;55.328;86.106;2024-03-06T12:22:48;100119.25;;;-1.36;82.02
78800;BME280;68148;55.328;86.106;2024-03-06T12:25:20;100112.38;;;-1.37;82.28
78800;BME280;68148;55.328;86.106;2024-03-06T12:27:48;100117.97;;;-1.43;77.45
78800;BME280;68148;55.328;86.106;2024-03-06T12:30:18;100115.69;;;-1.48;77.60
78800;BME280;68148;55.328;86.106;2024-03-06T12:32:44;100114.22;;;-1.52;76.91
78800;BME280;68148;55.328;86.106;2024-03-06T12:35:10;100106.34;;;-1.51;77.06
78800;BME280;68148;55.328;86.106;2024-03-06T12:37:36;100115.81;;;-1.49;79.30
78800;BME280;68148;55.328;86.106;2024-03-06T12:40:03;100109.88;;;-1.52;78.34
78800;BME280;68148;55.328;86.106;2024-03-06T12:42:29;100108.53;;;-1.57;77.78
78800;BME280;68148;55.328;86.106;2024-03-06T12:44:55;100110.81;;;-1.53;77.37
78800;BME280;68148;55.328;86.106;2024-03-06T12:47:21;100110.06;;;-1.55;77.95